createdAt,value
2023-03-30T00:02:23.639Z,16.10
2023-03-30T00:04:52.543Z,16.10
2023-03-30T00:07:21.111Z,16.10
2023-03-30T00:09:49.439Z,16.10
2023-03-30T00:12:21.058Z,16.10
2023-03-30T00:14:49.783Z,16.10
2023-03-30T00:17:18.700Z,16.00
2023-03-30T00:19:48.617Z,16.00
2023-03-30T00:22:16.959Z,16.00
2023-03-30T00:24:45.494Z,16.00
2023-03-30T00:27:13.776Z,16.00
2023-03-30T00:29:42.550Z,16.00
2023-03-30T00:32:10.940Z,16.00
2023-03-30T00:34:39.216Z,16.00
2023-03-30T00:37:09.317Z,16.00
2023-03-30T00:39:37.582Z,16.00
2023-03-30T00:42:06.196Z,16.00
2023-03-30T00:45:13.918Z,16.00
2023-03-30T00:47:44.628Z,16.00
2023-03-30T00:50:13.992Z,16.00
2023-03-30T00:52:46.369Z,16.00
2023-03-30T00:55:15.227Z,16.00
2023-03-30T00:57:45.279Z,16.00
2023-03-30T01:00:15.496Z,16.00
2023-03-30T01:02:48.784Z,16.00
2023-03-30T01:05:17.492Z,16.00
2023-03-30T01:07:49.948Z,16.00
2023-03-30T01:10:19.060Z,15.90
2023-03-30T01:12:47.560Z,16.00
2023-03-30T01:15:16.581Z,15.90
2023-03-30T01:18:07.034Z,15.90
2023-03-30T01:21:24.088Z,15.90
2023-03-30T01:24:18.411Z,16.00
2023-03-30T01:26:51.821Z,15.90
2023-03-30T01:29:30.373Z,16.00
2023-03-30T01:32:31.708Z,15.90
2023-03-30T01:35:33.467Z,15.90
2023-03-30T01:38:45.558Z,15.90
2023-03-30T01:41:20.139Z,15.90
2023-03-30T01:43:53.972Z,15.90
2023-03-30T01:46:30.633Z,15.90
2023-03-30T01:49:07.327Z,15.90
2023-03-30T01:51:41.278Z,15.90
2023-03-30T01:54:13.595Z,15.90
2023-03-30T01:56:45.736Z,15.90
2023-03-30T01:59:20.000Z,15.90
2023-03-30T02:01:54.214Z,15.90
2023-03-30T02:04:25.104Z,15.90
2023-03-30T02:06:58.172Z,15.90
2023-03-30T02:09:28.862Z,15.90
2023-03-30T02:11:58.964Z,15.90
2023-03-30T02:14:30.673Z,15.90
2023-03-30T02:17:02.532Z,15.90
2023-03-30T02:19:31.772Z,15.90
2023-03-30T02:22:00.249Z,15.90
2023-03-30T02:24:31.768Z,15.90
2023-03-30T02:27:02.915Z,15.90
2023-03-30T02:29:33.012Z,15.90
2023-03-30T02:32:01.948Z,15.90
2023-03-30T02:34:47.852Z,15.90
2023-03-30T02:37:32.716Z,15.80
2023-03-30T02:40:16.158Z,15.80
2023-03-30T02:43:03.505Z,15.80
2023-03-30T02:45:42.938Z,15.80
2023-03-30T02:48:25.083Z,15.80
2023-03-30T02:51:02.194Z,15.80
2023-03-30T02:53:34.303Z,15.80
2023-03-30T02:56:11.643Z,15.80
2023-03-30T02:58:45.940Z,15.80
2023-03-30T03:01:20.554Z,15.80
2023-03-30T03:03:51.761Z,15.80
2023-03-30T03:06:20.786Z,15.80
2023-03-30T03:08:49.657Z,15.80
2023-03-30T03:11:18.249Z,15.80
2023-03-30T03:13:47.902Z,15.80
2023-03-30T03:16:16.599Z,15.70
2023-03-30T03:18:44.894Z,15.70
2023-03-30T03:21:14.564Z,15.70
2023-03-30T03:23:43.151Z,15.70
2023-03-30T03:26:12.775Z,15.70
2023-03-30T03:28:41.038Z,15.70
2023-03-30T03:31:10.735Z,15.70
2023-03-30T03:33:39.114Z,15.70
2023-03-30T03:36:08.309Z,15.70
2023-03-30T03:38:36.746Z,15.70
2023-03-30T03:41:06.021Z,15.70
2023-03-30T03:43:34.536Z,15.70
2023-03-30T03:46:02.836Z,15.70
2023-03-30T03:48:32.543Z,15.70
2023-03-30T03:51:01.231Z,15.70
2023-03-30T03:53:30.363Z,15.70
2023-03-30T03:55:58.897Z,15.70
2023-03-30T03:58:27.439Z,15.70
2023-03-30T04:00:59.833Z,15.70
2023-03-30T04:03:28.472Z,15.70
2023-03-30T04:06:00.011Z,15.70
2023-03-30T04:08:28.652Z,15.70
2023-03-30T04:10:57.007Z,15.70
2023-03-30T04:13:25.383Z,15.70
2023-03-30T04:15:53.758Z,15.70
2023-03-30T04:18:22.351Z,15.70
2023-03-30T04:20:50.743Z,15.70
2023-03-30T04:23:22.180Z,15.70
2023-03-30T04:25:51.948Z,15.70
2023-03-30T04:28:21.938Z,15.70
2023-03-30T04:30:50.786Z,15.70
2023-03-30T04:33:19.693Z,15.70
2023-03-30T04:35:47.997Z,15.70
2023-03-30T04:38:22.709Z,15.70
2023-03-30T04:40:53.253Z,15.70
2023-03-30T04:43:22.640Z,15.70
2023-03-30T04:45:51.989Z,15.70
2023-03-30T04:48:21.033Z,15.70
2023-03-30T04:50:51.028Z,15.70
2023-03-30T04:53:22.018Z,15.70
2023-03-30T04:55:52.924Z,15.70
2023-03-30T04:58:21.140Z,15.70
2023-03-30T05:00:49.429Z,15.70
2023-03-30T05:03:18.483Z,15.70
2023-03-30T05:05:48.431Z,15.70
2023-03-30T05:08:16.732Z,15.70
2023-03-30T05:10:44.949Z,15.70
2023-03-30T05:13:14.694Z,15.70
2023-03-30T05:15:42.990Z,15.70
2023-03-30T05:18:11.341Z,15.70
2023-03-30T05:20:39.876Z,15.70
2023-03-30T05:23:08.083Z,15.70
2023-03-30T05:25:36.599Z,15.70
2023-03-30T05:28:04.954Z,15.70
2023-03-30T05:30:34.718Z,15.70
2023-03-30T05:33:03.106Z,15.70
2023-03-30T05:35:31.424Z,15.70
2023-03-30T05:37:59.789Z,15.70
2023-03-30T05:40:28.168Z,15.60
2023-03-30T05:42:56.495Z,15.70
2023-03-30T05:45:24.773Z,15.70
2023-03-30T05:47:55.941Z,15.70
2023-03-30T05:50:24.474Z,15.70
2023-03-30T05:52:52.759Z,15.70
2023-03-30T05:55:21.340Z,15.70
2023-03-30T05:57:49.685Z,15.70
2023-03-30T06:00:20.341Z,15.70
2023-03-30T06:02:49.107Z,15.70
2023-03-30T06:05:19.495Z,15.70
2023-03-30T06:07:48.293Z,15.70
2023-03-30T06:10:17.708Z,15.70
2023-03-30T06:12:46.065Z,15.80
2023-03-30T06:15:14.628Z,15.70
2023-03-30T06:17:42.884Z,15.80
2023-03-30T06:20:12.770Z,15.80
2023-03-30T06:22:42.720Z,15.70
2023-03-30T06:25:13.737Z,15.80
2023-03-30T06:27:44.692Z,15.80
2023-03-30T06:30:15.499Z,15.70
2023-03-30T06:32:43.844Z,15.70
2023-03-30T06:35:13.471Z,15.80
2023-03-30T06:37:43.562Z,15.80
2023-03-30T06:40:13.675Z,15.80
2023-03-30T06:42:44.432Z,15.80
2023-03-30T06:45:13.299Z,15.80
2023-03-30T06:47:42.736Z,15.80
2023-03-30T06:50:11.815Z,15.80
2023-03-30T06:52:40.136Z,15.80
2023-03-30T06:55:10.693Z,15.80
2023-03-30T06:57:38.979Z,15.80
2023-03-30T07:00:14.222Z,15.80
2023-03-30T07:02:43.162Z,15.80
2023-03-30T07:05:13.150Z,15.90
2023-03-30T07:07:41.445Z,15.90
2023-03-30T07:10:12.125Z,15.90
2023-03-30T07:12:41.974Z,15.90
2023-03-30T07:15:11.284Z,15.90
2023-03-30T07:17:39.786Z,15.90
2023-03-30T07:20:10.882Z,15.90
2023-03-30T07:22:39.307Z,15.90
2023-03-30T07:25:08.995Z,15.90
2023-03-30T07:27:39.040Z,15.90
2023-03-30T07:30:20.579Z,16.00
2023-03-30T07:32:51.071Z,16.00
2023-03-30T07:35:19.935Z,16.00
2023-03-30T07:37:50.854Z,16.00
2023-03-30T07:40:21.415Z,16.00
2023-03-30T07:42:51.628Z,16.10
2023-03-30T07:45:19.992Z,16.10
2023-03-30T07:47:48.287Z,16.00
2023-03-30T07:50:17.079Z,16.10
2023-03-30T07:52:45.402Z,16.10
2023-03-30T07:55:13.941Z,16.10
2023-03-30T07:57:42.386Z,16.10
2023-03-30T08:00:14.671Z,16.00
2023-03-30T08:02:44.845Z,16.10
2023-03-30T08:05:13.407Z,16.10
2023-03-30T08:07:41.727Z,16.10
2023-03-30T08:10:12.073Z,16.20
2023-03-30T08:12:41.523Z,16.20
2023-03-30T08:15:13.096Z,16.20
2023-03-30T08:17:42.927Z,16.20
2023-03-30T08:20:12.164Z,16.20
2023-03-30T08:22:40.678Z,16.20
2023-03-30T08:25:09.968Z,16.20
2023-03-30T08:27:38.346Z,16.20
2023-03-30T08:30:08.052Z,16.20
2023-03-30T08:32:38.116Z,16.30
2023-03-30T08:35:08.346Z,16.30
2023-03-30T08:37:36.645Z,16.30
2023-03-30T08:40:06.684Z,16.40
2023-03-30T08:42:50.673Z,16.40
2023-03-30T08:45:19.580Z,16.40
2023-03-30T08:47:52.230Z,16.40
2023-03-30T08:50:33.478Z,16.40
2023-03-30T08:53:02.285Z,16.50
2023-03-30T08:55:36.140Z,16.50
2023-03-30T08:58:11.078Z,16.60
2023-03-30T09:00:45.329Z,16.50
2023-03-30T09:03:24.346Z,16.50
2023-03-30T09:05:57.788Z,16.60
2023-03-30T09:08:29.417Z,16.50
2023-03-30T09:11:00.884Z,16.60
2023-03-30T09:13:34.038Z,16.50
2023-03-30T09:16:08.412Z,16.60
2023-03-30T09:18:40.392Z,16.60
2023-03-30T09:21:12.631Z,16.60
2023-03-30T09:23:41.588Z,16.70
2023-03-30T09:26:20.386Z,16.70
2023-03-30T09:28:53.544Z,16.70
2023-03-30T09:31:26.147Z,16.70
2023-03-30T09:34:01.975Z,16.80
2023-03-30T09:36:36.664Z,16.80
2023-03-30T09:39:11.576Z,16.80
2023-03-30T09:41:52.702Z,16.90
2023-03-30T09:44:27.466Z,16.80
2023-03-30T09:47:00.444Z,16.80
2023-03-30T09:49:38.934Z,16.90
2023-03-30T09:52:09.674Z,16.90
2023-03-30T09:54:39.120Z,16.90
2023-03-30T09:57:22.321Z,17.00
2023-03-30T09:59:52.869Z,17.00
2023-03-30T10:02:22.341Z,17.00
2023-03-30T10:05:02.421Z,17.10
2023-03-30T10:07:33.839Z,17.10
2023-03-30T10:10:13.447Z,17.10
2023-03-30T10:12:41.900Z,17.20
2023-03-30T10:15:17.592Z,17.10
2023-03-30T10:17:48.235Z,17.20
2023-03-30T10:20:25.606Z,17.10
2023-03-30T10:22:55.955Z,17.20
2023-03-30T10:25:27.519Z,17.20
2023-03-30T10:27:59.039Z,17.30
2023-03-30T10:30:28.760Z,17.30
2023-03-30T10:32:59.734Z,17.30
2023-03-30T10:35:35.690Z,17.40
2023-03-30T10:38:06.328Z,17.40
2023-03-30T10:40:37.792Z,17.40
2023-03-30T10:43:14.155Z,17.40
2023-03-30T10:45:46.853Z,17.50
2023-03-30T10:48:27.445Z,17.50
2023-03-30T10:51:06.300Z,17.50
2023-03-30T10:53:41.924Z,17.50
2023-03-30T10:56:20.245Z,17.50
2023-03-30T10:59:02.702Z,17.60
2023-03-30T11:01:38.618Z,17.60
2023-03-30T11:04:23.261Z,17.70
2023-03-30T11:06:57.643Z,17.80
2023-03-30T11:09:31.490Z,17.90
2023-03-30T11:12:04.399Z,18.00
2023-03-30T11:14:43.099Z,18.10
2023-03-30T11:17:21.309Z,18.30
2023-03-30T11:19:52.985Z,18.50
2023-03-30T11:22:36.279Z,18.70
2023-03-30T11:25:19.108Z,18.90
2023-03-30T11:27:56.187Z,19.20
2023-03-30T11:30:29.966Z,19.40
2023-03-30T11:33:03.703Z,19.50
2023-03-30T11:35:39.736Z,19.50
2023-03-30T11:38:15.902Z,19.40
2023-03-30T11:40:47.198Z,19.50
2023-03-30T11:43:16.382Z,19.80
2023-03-30T11:45:59.764Z,20.10
2023-03-30T11:49:08.080Z,20.30
2023-03-30T11:51:50.884Z,20.60
2023-03-30T11:54:43.228Z,20.80
2023-03-30T11:57:26.883Z,20.80
2023-03-30T12:00:09.671Z,21.00
2023-03-30T12:02:47.955Z,21.10
2023-03-30T12:05:23.240Z,21.10
2023-03-30T12:08:00.663Z,21.10
2023-03-30T12:10:38.276Z,21.10
2023-03-30T12:13:07.116Z,21.10
2023-03-30T12:15:45.068Z,21.10
2023-03-30T12:18:34.230Z,21.30
2023-03-30T12:21:22.049Z,21.40
2023-03-30T12:23:57.501Z,21.60
2023-03-30T12:26:29.720Z,21.80
2023-03-30T12:29:38.903Z,22.00
2023-03-30T12:32:06.632Z,22.30
2023-03-30T12:34:37.407Z,22.70
2023-03-30T12:37:13.380Z,23.00
2023-03-30T12:39:49.139Z,23.40
2023-03-30T12:42:27.631Z,23.60
2023-03-30T12:45:33.397Z,23.60
2023-03-30T12:48:26.363Z,23.60
2023-03-30T12:51:07.235Z,23.70
2023-03-30T12:54:15.894Z,23.80
2023-03-30T12:56:52.295Z,24.00
2023-03-30T12:59:58.816Z,24.10
2023-03-30T13:02:51.986Z,24.00
2023-03-30T13:05:27.370Z,24.00
2023-03-30T13:07:57.088Z,24.40
2023-03-30T13:10:42.149Z,24.70
2023-03-30T13:13:22.998Z,25.00
2023-03-30T13:15:57.236Z,25.40
2023-03-30T13:18:42.272Z,25.40
2023-03-30T13:21:23.094Z,25.40
2023-03-30T13:24:04.600Z,25.20
2023-03-30T13:26:43.543Z,25.00
2023-03-30T13:29:15.285Z,25.00
2023-03-30T13:32:22.765Z,25.10
2023-03-30T13:35:07.520Z,25.40
2023-03-30T13:37:55.079Z,25.80
2023-03-30T13:40:41.571Z,26.40
2023-03-30T13:43:18.850Z,26.70
2023-03-30T13:46:09.260Z,27.10
2023-03-30T13:48:57.007Z,27.50
2023-03-30T13:51:28.559Z,27.60
2023-03-30T13:54:00.035Z,27.50
2023-03-30T13:56:31.168Z,27.80
2023-03-30T13:59:06.330Z,27.70
2023-03-30T14:01:39.134Z,27.10
2023-03-30T14:04:12.043Z,26.90
2023-03-30T14:06:45.930Z,27.30
2023-03-30T14:09:20.218Z,27.80
2023-03-30T14:11:52.093Z,27.90
2023-03-30T14:14:32.349Z,28.10
2023-03-30T14:17:02.946Z,28.30
2023-03-30T14:19:36.457Z,28.60
2023-03-30T14:22:11.492Z,28.90
2023-03-30T14:24:39.856Z,29.10
2023-03-30T14:27:13.572Z,29.30
2023-03-30T14:29:46.513Z,29.30
2023-03-30T14:32:16.890Z,29.50
2023-03-30T14:34:52.721Z,29.80
2023-03-30T14:37:23.469Z,29.90
2023-03-30T14:39:54.745Z,30.00
2023-03-30T14:42:25.339Z,30.20
2023-03-30T14:44:56.104Z,29.90
2023-03-30T14:47:27.363Z,29.70
2023-03-30T14:49:59.066Z,29.30
2023-03-30T14:52:32.389Z,29.40
2023-03-30T14:55:05.640Z,29.70
2023-03-30T14:57:38.970Z,29.80
2023-03-30T15:00:18.660Z,29.90
2023-03-30T15:02:48.542Z,30.10
2023-03-30T15:05:20.385Z,30.20
2023-03-30T15:07:50.563Z,30.30
2023-03-30T15:10:24.038Z,30.40
2023-03-30T15:12:54.493Z,30.30
2023-03-30T15:15:27.914Z,30.40
2023-03-30T15:17:57.471Z,30.50
2023-03-30T15:20:29.875Z,30.50
2023-03-30T15:22:58.707Z,30.40
2023-03-30T15:25:33.053Z,30.40
2023-03-30T15:28:04.707Z,30.50
2023-03-30T15:30:38.038Z,30.30
2023-03-30T15:33:08.251Z,30.10
2023-03-30T15:35:38.940Z,29.80
2023-03-30T15:38:17.994Z,29.50
2023-03-30T15:40:47.582Z,29.10
2023-03-30T15:43:18.434Z,28.80
2023-03-30T15:45:49.267Z,28.70
2023-03-30T15:48:21.081Z,28.90
2023-03-30T15:50:55.275Z,29.10
2023-03-30T15:53:35.430Z,29.40
2023-03-30T15:56:04.625Z,29.50
2023-03-30T15:58:34.990Z,29.50
2023-03-30T16:01:06.192Z,29.60
2023-03-30T16:03:39.361Z,29.40
2023-03-30T16:06:14.345Z,29.20
2023-03-30T16:08:44.450Z,28.70
2023-03-30T16:11:16.247Z,28.30
2023-03-30T16:13:46.271Z,27.80
2023-03-30T16:16:15.765Z,27.60
2023-03-30T16:18:44.258Z,27.20
2023-03-30T16:21:15.822Z,27.00
2023-03-30T16:23:44.080Z,26.70
2023-03-30T16:26:12.895Z,26.50
2023-03-30T16:28:42.834Z,26.30
2023-03-30T16:31:17.354Z,26.00
2023-03-30T16:33:45.794Z,25.80
2023-03-30T16:36:17.347Z,25.70
2023-03-30T16:38:46.462Z,25.50
2023-03-30T16:41:19.619Z,25.30
2023-03-30T16:43:48.268Z,25.10
2023-03-30T16:46:18.979Z,25.00
2023-03-30T16:48:47.852Z,24.80
2023-03-30T16:51:18.179Z,24.70
2023-03-30T16:53:46.556Z,24.60
2023-03-30T16:56:18.004Z,24.50
2023-03-30T16:58:46.806Z,24.40
2023-03-30T17:01:18.660Z,24.20
2023-03-30T17:03:47.775Z,24.10
2023-03-30T17:06:17.640Z,24.00
2023-03-30T17:08:46.420Z,23.90
2023-03-30T17:11:14.942Z,23.80
2023-03-30T17:13:43.885Z,23.80
2023-03-30T17:16:14.356Z,23.60
2023-03-30T17:18:43.423Z,23.50
2023-03-30T17:21:16.654Z,23.40
2023-03-30T17:23:47.917Z,23.30
2023-03-30T17:26:16.918Z,23.20
2023-03-30T17:28:45.428Z,23.10
2023-03-30T17:31:17.515Z,23.00
2023-03-30T17:33:45.938Z,22.90
2023-03-30T17:36:18.677Z,22.90
2023-03-30T17:38:48.892Z,22.80
2023-03-30T17:41:19.406Z,22.70
2023-03-30T17:43:48.714Z,22.60
2023-03-30T17:46:19.593Z,22.60
2023-03-30T17:48:48.423Z,22.50
2023-03-30T17:51:16.732Z,22.40
2023-03-30T17:53:45.053Z,22.30
2023-03-30T17:56:15.526Z,22.30
2023-03-30T17:58:43.860Z,22.20
2023-03-30T18:01:13.877Z,22.10
2023-03-30T18:03:42.842Z,22.10
2023-03-30T18:06:13.814Z,22.00
2023-03-30T18:08:43.128Z,21.90
2023-03-30T18:11:11.467Z,21.80
2023-03-30T18:13:41.298Z,21.80
2023-03-30T18:16:13.186Z,21.70
2023-03-30T18:18:41.540Z,21.60
2023-03-30T18:21:11.635Z,21.60
2023-03-30T18:23:39.972Z,21.50
2023-03-30T18:26:12.286Z,21.50
2023-03-30T18:28:43.722Z,21.40
2023-03-30T18:31:12.951Z,21.40
2023-03-30T18:33:41.314Z,21.30
2023-03-30T18:36:12.965Z,21.30
2023-03-30T18:38:42.276Z,21.20
2023-03-30T18:41:12.038Z,21.10
2023-03-30T18:43:41.695Z,21.10
2023-03-30T18:46:13.014Z,21.00
2023-03-30T18:48:41.371Z,21.00
2023-03-30T18:51:11.729Z,20.90
2023-03-30T18:53:40.140Z,20.90
2023-03-30T18:56:12.181Z,20.80
2023-03-30T18:58:42.959Z,20.80
2023-03-30T19:01:13.349Z,20.70
2023-03-30T19:03:42.257Z,20.70
2023-03-30T19:06:13.928Z,20.60
2023-03-30T19:08:43.593Z,20.50
2023-03-30T19:11:17.066Z,20.50
2023-03-30T19:13:47.755Z,20.50
2023-03-30T19:16:18.718Z,20.40
2023-03-30T19:18:48.494Z,20.40
2023-03-30T19:21:18.656Z,20.40
2023-03-30T19:23:46.928Z,20.30
2023-03-30T19:26:15.156Z,20.30
2023-03-30T19:28:43.401Z,20.20
2023-03-30T19:31:16.370Z,20.20
2023-03-30T19:33:45.125Z,20.10
2023-03-30T19:36:13.489Z,20.10
2023-03-30T19:38:44.416Z,20.10
2023-03-30T19:41:12.753Z,20.00
2023-03-30T19:43:41.541Z,20.00
2023-03-30T19:46:09.945Z,19.90
2023-03-30T19:48:39.655Z,19.90
2023-03-30T19:51:08.432Z,19.90
2023-03-30T19:53:37.253Z,19.80
2023-03-30T19:56:10.508Z,19.80
2023-03-30T19:58:38.806Z,19.70
2023-03-30T20:01:10.454Z,19.70
2023-03-30T20:03:40.377Z,19.60
2023-03-30T20:06:11.728Z,19.60
2023-03-30T20:08:40.662Z,19.60
2023-03-30T20:11:10.151Z,19.60
2023-03-30T20:13:45.520Z,19.60
2023-03-30T20:16:20.593Z,19.50
2023-03-30T20:18:52.109Z,19.50
2023-03-30T20:21:21.575Z,19.40
2023-03-30T20:23:50.399Z,19.40
2023-03-30T20:26:19.571Z,19.40
2023-03-30T20:28:48.567Z,19.30
2023-03-30T20:31:17.759Z,19.30
2023-03-30T20:33:46.532Z,19.30
2023-03-30T20:36:16.492Z,19.20
2023-03-30T20:38:45.979Z,19.20
2023-03-30T20:41:14.769Z,19.20
2023-03-30T20:43:56.511Z,19.20
2023-03-30T20:46:26.084Z,19.20
2023-03-30T20:48:55.086Z,19.10
2023-03-30T20:51:25.402Z,19.10
2023-03-30T20:53:54.346Z,19.00
2023-03-30T20:56:23.575Z,19.00
2023-03-30T20:58:52.311Z,19.00
2023-03-30T21:01:26.585Z,19.00
2023-03-30T21:03:57.729Z,18.90
2023-03-30T21:06:29.470Z,18.90
2023-03-30T21:09:00.359Z,18.90
2023-03-30T21:11:33.542Z,18.80
2023-03-30T21:14:02.802Z,18.80
2023-03-30T21:16:31.492Z,18.80
2023-03-30T21:18:59.897Z,18.80
2023-03-30T21:21:31.338Z,18.80
2023-03-30T21:24:00.658Z,18.80
2023-03-30T21:26:30.237Z,18.70
2023-03-30T21:28:58.778Z,18.70
2023-03-30T21:31:27.125Z,18.70
2023-03-30T21:33:55.413Z,18.70
2023-03-30T21:36:24.354Z,18.70
2023-03-30T21:38:56.087Z,18.70
2023-03-30T21:41:26.328Z,18.60
2023-03-30T21:43:55.705Z,18.60
2023-03-30T21:46:26.182Z,18.60
2023-03-30T21:48:55.567Z,18.60
2023-03-30T21:51:26.440Z,18.60
2023-03-30T21:53:57.330Z,18.60
2023-03-30T21:56:29.007Z,18.60
2023-03-30T21:58:57.718Z,18.60
2023-03-30T22:01:26.380Z,18.60
2023-03-30T22:03:55.484Z,18.50
2023-03-30T22:06:24.486Z,18.50
2023-03-30T22:08:53.021Z,18.50
2023-03-30T22:11:24.627Z,18.40
2023-03-30T22:13:55.399Z,18.40
2023-03-30T22:16:28.048Z,18.40
2023-03-30T22:18:56.996Z,18.40
2023-03-30T22:21:29.289Z,18.50
2023-03-30T22:23:57.616Z,18.40
2023-03-30T22:26:28.181Z,18.40
2023-03-30T22:28:57.182Z,18.40
2023-03-30T22:31:26.662Z,18.40
2023-03-30T22:33:56.414Z,18.40
2023-03-30T22:36:26.753Z,18.40
2023-03-30T22:38:56.810Z,18.40
2023-03-30T22:41:26.846Z,18.40
2023-03-30T22:43:56.809Z,18.40
2023-03-30T22:46:27.039Z,18.30
2023-03-30T22:48:56.349Z,18.30
2023-03-30T22:51:26.682Z,18.30
2023-03-30T22:53:57.832Z,18.30
2023-03-30T22:56:28.048Z,18.30
2023-03-30T22:58:56.492Z,18.30
2023-03-30T23:01:24.944Z,18.30
2023-03-30T23:03:53.600Z,18.30
2023-03-30T23:06:22.109Z,18.20
2023-03-30T23:08:51.831Z,18.20
2023-03-30T23:11:21.709Z,18.20
2023-03-30T23:13:52.547Z,18.20
2023-03-30T23:16:20.955Z,18.20
2023-03-30T23:18:49.613Z,18.20
2023-03-30T23:21:18.397Z,18.20
2023-03-30T23:23:46.690Z,18.20
2023-03-30T23:26:14.916Z,18.20
2023-03-30T23:28:45.313Z,18.20
2023-03-30T23:31:16.624Z,18.20
2023-03-30T23:33:45.732Z,18.10
2023-03-30T23:36:14.346Z,18.10
2023-03-30T23:38:42.860Z,18.10
2023-03-30T23:41:13.429Z,18.10
2023-03-30T23:43:41.896Z,18.10
2023-03-30T23:46:11.078Z,18.10
2023-03-30T23:48:42.083Z,18.00
2023-03-30T23:51:12.294Z,18.00
2023-03-30T23:53:41.837Z,18.00
2023-03-30T23:56:13.107Z,18.00
2023-03-30T23:58:42.029Z,18.00
